Time;durP1;ratioP1;P1;durP2;ratioP2;P2;SDS_P1;SDS_P2;PMS_P1;PMS_P2;Temp;Humidity;BMP_temperature;BMP_pressure;BME280_temperature;BME280_humidity;BME280_pressure;Samples;Min_cycle;Max_cycle;Signal;HPM_P1;HPM_P2
2023/09/13 00:02:29;;;;;;;35.30;29.80;;;18.50;99.90;;;;;;4958246;28;20203;-83
2023/09/13 00:04:59;;;;;;;35.40;29.42;;;18.70;99.90;;;;;;4955228;29;20750;-83
2023/09/13 00:07:30;;;;;;;26.33;23.48;;;19.00;99.90;;;;;;4958112;28;20196;-84
2023/09/13 00:10:01;;;;;;;25.40;22.60;;;19.10;99.90;;;;;;4955996;29;20196;-85
2023/09/13 00:12:32;;;;;;;26.80;22.95;;;19.20;99.90;;;;;;4955920;29;20223;-85
2023/09/13 00:15:03;;;;;;;29.55;21.80;;;19.30;99.90;;;;;;4954917;29;20651;-85
2023/09/13 00:17:35;;;;;;;26.95;21.45;;;19.50;99.90;;;;;;4952372;29;20199;-85
2023/09/13 00:20:07;;;;;;;24.75;20.73;;;19.60;99.90;;;;;;4955431;29;20223;-85
2023/09/13 00:22:38;;;;;;;29.15;22.48;;;19.80;99.90;;;;;;4952661;29;20581;-85
2023/09/13 00:25:09;;;;;;;27.90;20.85;;;19.90;99.90;;;;;;4954367;28;20224;-85
2023/09/13 00:27:40;;;;;;;29.90;21.77;;;19.90;99.90;;;;;;4955622;29;20271;-85
2023/09/13 00:30:11;;;;;;;25.42;21.48;;;20.00;99.90;;;;;;4963257;29;20188;-84
2023/09/13 00:32:45;;;;;;;26.42;21.17;;;20.00;99.90;;;;;;4939107;29;20275;-85
2023/09/13 00:35:15;;;;;;;29.27;21.70;;;20.10;99.90;;;;;;4936916;29;20748;-84
2023/09/13 00:37:46;;;;;;;23.58;20.52;;;20.30;99.90;;;;;;4945750;29;20208;-85
2023/09/13 00:40:17;;;;;;;21.60;19.23;;;20.30;99.90;;;;;;4941566;29;20202;-85
2023/09/13 00:42:47;;;;;;;23.42;20.42;;;20.20;99.90;;;;;;4954776;29;20211;-85
2023/09/13 00:45:18;;;;;;;21.50;17.95;;;20.50;99.90;;;;;;4954892;29;20694;-85
2023/09/13 00:47:51;;;;;;;21.45;19.20;;;20.60;99.90;;;;;;4955061;29;20204;-84
2023/09/13 00:50:22;;;;;;;21.00;17.55;;;20.70;99.90;;;;;;4954978;29;20199;-84
2023/09/13 00:52:54;;;;;;;20.77;17.08;;;20.90;99.90;;;;;;4954876;29;20231;-84
2023/09/13 00:55:28;;;;;;;16.67;13.20;;;20.90;99.90;;;;;;4943431;29;20675;-85
2023/09/13 00:58:00;;;;;;;16.50;14.38;;;21.00;99.90;;;;;;4935675;29;20207;-85
2023/09/13 01:00:32;;;;;;;19.58;14.35;;;20.90;99.90;;;;;;4935565;29;20215;-85
2023/09/13 01:03:07;;;;;;;19.55;15.10;;;21.10;99.90;;;;;;4945923;29;20192;-86
2023/09/13 01:05:39;;;;;;;17.05;13.63;;;21.30;99.90;;;;;;4942685;29;20211;-85
2023/09/13 01:08:11;;;;;;;15.75;14.00;;;21.50;99.90;;;;;;4947139;29;20567;-85
2023/09/13 01:10:42;;;;;;;17.40;13.30;;;21.50;99.90;;;;;;4953885;29;20200;-84
2023/09/13 01:13:12;;;;;;;18.85;14.63;;;21.50;99.90;;;;;;4945102;29;20279;-84
2023/09/13 01:16:03;;;;;;;14.50;12.98;;;21.50;98.60;;;;;;4946137;29;20217;-85
2023/09/13 01:18:45;;;;;;;13.73;11.70;;;21.60;99.00;;;;;;4953450;29;20211;-86
2023/09/13 01:21:42;;;;;;;14.13;11.70;;;21.70;98.00;;;;;;4954386;29;20210;-86
2023/09/13 01:24:39;;;;;;;13.45;12.05;;;21.80;97.70;;;;;;4954833;28;20222;-87
2023/09/13 01:27:28;;;;;;;14.43;11.45;;;22.00;97.20;;;;;;4950233;29;20230;-86
2023/09/13 01:30:05;;;;;;;12.07;10.85;;;22.10;95.80;;;;;;4944132;29;20200;-88
2023/09/13 01:32:37;;;;;;;13.05;10.57;;;22.10;94.90;;;;;;4946370;29;20283;-88
2023/09/13 01:35:08;;;;;;;13.73;11.05;;;22.10;95.10;;;;;;4957316;29;20224;-89
2023/09/13 01:37:39;;;;;;;12.25;10.82;;;22.10;93.60;;;;;;4955745;28;20185;-89
2023/09/13 01:40:11;;;;;;;13.02;10.43;;;22.10;93.00;;;;;;4945247;29;20207;-88
2023/09/13 01:42:43;;;;;;;13.57;10.15;;;22.20;92.20;;;;;;4937603;29;20204;-88
2023/09/13 01:45:18;;;;;;;11.63;9.63;;;22.30;93.00;;;;;;4955095;29;20197;-89
2023/09/13 01:47:50;;;;;;;10.35;9.25;;;22.50;92.90;;;;;;4955321;29;20219;-88
2023/09/13 01:50:21;;;;;;;10.20;9.07;;;22.60;91.80;;;;;;4954287;29;20195;-88
2023/09/13 01:52:52;;;;;;;11.27;10.07;;;22.80;91.40;;;;;;4955262;29;20227;-88
2023/09/13 01:55:23;;;;;;;15.60;10.50;;;22.90;87.80;;;;;;4958885;29;20206;-88
2023/09/13 01:57:53;;;;;;;10.40;8.65;;;22.90;87.20;;;;;;4954251;29;20200;-88
2023/09/13 02:00:27;;;;;;;11.90;7.85;;;22.80;87.10;;;;;;4953662;29;20204;-89
2023/09/13 02:02:58;;;;;;;9.50;8.20;;;23.00;87.60;;;;;;4955902;28;20274;-88
2023/09/13 02:05:28;;;;;;;11.90;7.93;;;23.20;85.40;;;;;;4954538;29;20211;-88
2023/09/13 02:07:59;;;;;;;10.80;7.78;;;23.10;80.60;;;;;;4954460;29;20195;-87
2023/09/13 02:10:30;;;;;;;12.57;9.25;;;23.10;79.60;;;;;;4954311;29;20291;-87
2023/09/13 02:13:03;;;;;;;7.30;6.60;;;23.20;79.20;;;;;;4954036;29;20231;-87
2023/09/13 02:15:40;;;;;;;6.93;6.20;;;23.40;79.30;;;;;;4959710;29;20286;-87
2023/09/13 02:18:11;;;;;;;8.40;6.57;;;23.50;77.00;;;;;;4952340;29;20282;-88
2023/09/13 02:20:42;;;;;;;9.68;6.20;;;23.60;74.70;;;;;;4953528;29;20200;-87
2023/09/13 02:23:14;;;;;;;6.88;6.07;;;23.70;73.20;;;;;;4946066;29;20205;-88
2023/09/13 02:25:45;;;;;;;6.38;5.65;;;23.90;71.30;;;;;;4936498;29;20256;-88
2023/09/13 02:28:17;;;;;;;7.97;6.30;;;24.10;69.70;;;;;;4936040;29;20200;-88
2023/09/13 02:30:50;;;;;;;6.60;6.00;;;24.10;69.50;;;;;;4938346;28;20220;-88
2023/09/13 02:33:21;;;;;;;8.25;6.43;;;24.20;69.10;;;;;;4953480;29;20233;-88
2023/09/13 02:35:52;;;;;;;7.78;6.65;;;24.40;68.80;;;;;;4953737;28;20216;-89
2023/09/13 02:38:22;;;;;;;8.43;6.85;;;24.50;68.40;;;;;;4953198;29;20196;-88
2023/09/13 02:40:56;;;;;;;7.70;6.90;;;24.50;69.00;;;;;;4948859;29;20197;-88
2023/09/13 02:43:27;;;;;;;9.98;8.93;;;24.60;68.50;;;;;;4949337;29;20193;-88
2023/09/13 02:45:59;;;;;;;12.65;10.27;;;24.60;79.50;;;;;;4963401;28;20196;-87
2023/09/13 02:48:30;;;;;;;17.60;10.65;;;24.60;87.90;;;;;;4953523;29;20200;-87
2023/09/13 02:51:02;;;;;;;15.88;11.25;;;24.50;90.40;;;;;;4959018;29;20589;-89
2023/09/13 02:53:33;;;;;;;14.82;10.82;;;24.50;91.80;;;;;;4953233;29;20215;-90
2023/09/13 02:56:10;;;;;;;14.35;10.75;;;24.60;93.70;;;;;;4956579;29;20204;-90
2023/09/13 02:58:41;;;;;;;14.30;10.70;;;24.70;94.70;;;;;;4951856;29;20196;-89
2023/09/13 03:01:14;;;;;;;12.20;9.30;;;24.70;96.30;;;;;;4937108;29;20202;-89
2023/09/13 03:03:45;;;;;;;16.88;10.05;;;24.50;98.30;;;;;;4943269;29;20567;-90
2023/09/13 03:06:16;;;;;;;14.02;10.00;;;24.40;99.90;;;;;;4956071;29;20678;-88
2023/09/13 03:08:48;;;;;;;15.98;10.80;;;24.20;99.90;;;;;;4955603;29;20252;-88
2023/09/13 03:11:20;;;;;;;13.13;11.60;;;24.10;99.90;;;;;;4954286;29;20545;-89
2023/09/13 03:13:51;;;;;;;12.52;10.68;;;24.00;99.90;;;;;;4954984;29;20673;-87
2023/09/13 03:16:24;;;;;;;16.10;11.70;;;24.20;99.90;;;;;;4959674;28;20202;-89
2023/09/13 03:18:57;;;;;;;13.48;11.25;;;24.10;99.90;;;;;;4978000;28;20254;-89
2023/09/13 03:21:28;;;;;;;16.60;12.00;;;24.00;99.90;;;;;;4971718;29;20202;-89
2023/09/13 03:23:58;;;;;;;13.20;10.50;;;23.90;99.90;;;;;;4973899;29;20195;-88
2023/09/13 03:26:29;;;;;;;13.23;10.60;;;24.10;99.90;;;;;;4972545;29;20188;-89
2023/09/13 03:29:00;;;;;;;15.38;10.90;;;24.00;99.90;;;;;;4967796;28;20195;-89
2023/09/13 03:31:35;;;;;;;12.38;10.18;;;23.90;99.90;;;;;;4957678;28;20193;-90
2023/09/13 03:34:06;;;;;;;14.68;10.60;;;23.90;99.90;;;;;;4956719;28;20243;-89
2023/09/13 03:36:37;;;;;;;16.38;10.55;;;23.90;99.90;;;;;;4935818;29;20303;-91
2023/09/13 03:39:08;;;;;;;15.00;10.85;;;23.90;99.90;;;;;;4939457;29;20188;-90
2023/09/13 03:41:39;;;;;;;12.00;10.00;;;23.60;99.90;;;;;;4953805;29;20211;-89
2023/09/13 03:44:10;;;;;;;11.85;10.63;;;23.50;99.90;;;;;;4955673;28;20196;-89
2023/09/13 03:46:43;;;;;;;12.52;10.05;;;23.40;99.90;;;;;;4944886;29;20215;-90
2023/09/13 03:49:14;;;;;;;14.13;10.07;;;23.30;99.90;;;;;;4958662;29;20223;-87
2023/09/13 03:51:44;;;;;;;12.20;9.32;;;23.40;99.90;;;;;;4976743;29;20234;-89
2023/09/13 03:54:16;;;;;;;18.10;10.05;;;23.40;99.90;;;;;;4952959;29;20217;-89
2023/09/13 03:56:47;;;;;;;12.52;10.38;;;23.20;99.90;;;;;;4957523;29;20202;-90
2023/09/13 03:59:18;;;;;;;14.23;10.27;;;23.10;99.90;;;;;;4953512;29;20204;-90
2023/09/13 04:01:50;;;;;;;13.13;10.18;;;23.30;99.90;;;;;;4938344;29;20213;-88
2023/09/13 04:04:22;;;;;;;12.95;10.40;;;23.30;99.90;;;;;;4956191;29;20192;-90
2023/09/13 04:06:53;;;;;;;14.23;10.15;;;23.40;99.90;;;;;;4941341;29;20200;-87
2023/09/13 04:09:23;;;;;;;14.45;10.10;;;23.10;99.90;;;;;;4957284;29;20196;-89
2023/09/13 04:11:52;;;;;;;14.10;10.85;;;23.20;99.90;;;;;;4943779;29;20196;-89
2023/09/13 04:14:23;;;;;;;14.30;11.25;;;23.20;99.90;;;;;;4937795;29;20283;-90
2023/09/13 04:16:56;;;;;;;14.20;10.45;;;23.10;99.90;;;;;;4956541;29;20690;-89
2023/09/13 04:19:27;;;;;;;14.18;10.57;;;23.00;99.90;;;;;;4955248;29;20671;-89
2023/09/13 04:21:57;;;;;;;14.10;10.13;;;22.90;99.90;;;;;;4953936;29;20196;-90
2023/09/13 04:24:28;;;;;;;17.63;10.50;;;22.80;99.90;;;;;;4957212;29;20579;-89
2023/09/13 04:26:59;;;;;;;18.00;10.43;;;22.70;99.90;;;;;;4956906;29;20204;-91
2023/09/13 04:29:31;;;;;;;13.73;9.82;;;22.60;99.90;;;;;;4949794;29;20572;-91
2023/09/13 04:32:05;;;;;;;11.27;9.50;;;22.70;99.90;;;;;;4937722;29;20204;-90
2023/09/13 04:34:37;;;;;;;12.95;9.68;;;22.70;99.90;;;;;;4943471;28;20246;-90
2023/09/13 04:37:09;;;;;;;9.95;8.77;;;22.60;99.90;;;;;;4948046;29;20645;-89
2023/09/13 04:39:40;;;;;;;12.00;8.77;;;22.50;99.90;;;;;;4945676;29;20223;-89
2023/09/13 04:42:11;;;;;;;10.95;8.40;;;22.40;99.90;;;;;;4937728;29;20219;-89
2023/09/13 04:44:42;;;;;;;11.35;8.43;;;22.50;99.90;;;;;;4947520;29;20216;-90
2023/09/13 04:47:14;;;;;;;10.00;7.47;;;22.50;99.90;;;;;;4941974;29;20203;-89
2023/09/13 04:49:48;;;;;;;11.10;7.10;;;22.40;99.90;;;;;;4957451;29;20202;-90
2023/09/13 04:52:18;;;;;;;9.73;6.20;;;22.40;99.90;;;;;;4957295;29;20200;-90
2023/09/13 04:54:49;;;;;;;7.03;5.22;;;22.30;99.90;;;;;;4941683;29;20239;-88
2023/09/13 04:57:21;;;;;;;10.05;6.25;;;22.40;99.90;;;;;;4954060;29;20211;-90
2023/09/13 04:59:52;;;;;;;11.02;6.57;;;22.50;99.90;;;;;;4954152;29;20196;-90
2023/09/13 05:02:25;;;;;;;8.02;5.97;;;22.50;99.90;;;;;;4958059;29;20200;-87
2023/09/13 05:04:55;;;;;;;8.15;5.38;;;22.40;99.90;;;;;;4956295;29;20207;-90
2023/09/13 05:07:26;;;;;;;6.53;5.30;;;22.50;99.90;;;;;;4956595;29;20207;-90
2023/09/13 05:09:57;;;;;;;6.50;5.25;;;22.40;99.90;;;;;;4937218;29;20201;-86
2023/09/13 05:12:28;;;;;;;7.47;5.32;;;22.40;99.90;;;;;;4966079;28;20226;-85
2023/09/13 05:14:59;;;;;;;7.50;5.47;;;22.50;99.90;;;;;;4967294;28;20583;-86
2023/09/13 05:17:31;;;;;;;7.20;4.70;;;22.50;99.90;;;;;;4954971;28;20231;-87
2023/09/13 05:20:03;;;;;;;8.95;4.75;;;22.40;99.90;;;;;;4954419;29;20200;-86
2023/09/13 05:22:33;;;;;;;8.18;4.82;;;22.40;99.90;;;;;;4956086;29;20196;-87
2023/09/13 05:25:05;;;;;;;9.98;5.00;;;22.40;99.90;;;;;;4957527;29;20188;-87
2023/09/13 05:27:37;;;;;;;6.03;4.80;;;22.40;99.90;;;;;;4935545;29;20625;-87
2023/09/13 05:30:09;;;;;;;5.93;4.65;;;22.50;99.90;;;;;;4942353;29;20192;-87
2023/09/13 05:32:42;;;;;;;7.00;4.60;;;22.60;99.90;;;;;;4955729;29;20223;-86
2023/09/13 05:35:16;;;;;;;5.53;4.47;;;22.70;99.90;;;;;;4957207;28;20242;-87
2023/09/13 05:37:47;;;;;;;7.43;4.18;;;22.80;99.40;;;;;;4941541;29;20184;-86
2023/09/13 05:40:18;;;;;;;5.60;3.83;;;23.00;98.60;;;;;;4946280;28;20239;-89
2023/09/13 05:42:48;;;;;;;4.55;3.83;;;23.10;97.60;;;;;;4943402;29;20200;-89
2023/09/13 05:45:23;;;;;;;5.47;4.05;;;23.10;97.00;;;;;;4946729;29;20574;-92
2023/09/13 05:47:58;;;;;;;5.50;3.90;;;23.20;96.10;;;;;;4955884;29;20286;-90
2023/09/13 05:50:29;;;;;;;5.90;4.03;;;23.20;96.10;;;;;;4954430;29;20207;-89
2023/09/13 05:52:59;;;;;;;5.13;4.10;;;23.10;95.70;;;;;;4952366;29;20204;-89
2023/09/13 05:55:30;;;;;;;6.82;3.75;;;23.10;95.70;;;;;;4947347;29;20231;-90
2023/09/13 05:58:01;;;;;;;5.82;4.00;;;23.20;95.20;;;;;;4957405;29;20196;-89
2023/09/13 06:00:31;;;;;;;6.35;4.03;;;23.20;95.00;;;;;;4968238;29;20203;-91
2023/09/13 06:03:04;;;;;;;7.43;3.97;;;23.30;95.70;;;;;;4969788;28;20204;-90
2023/09/13 06:05:36;;;;;;;5.05;3.72;;;23.40;95.20;;;;;;4947136;29;20196;-89
2023/09/13 06:08:07;;;;;;;6.25;4.35;;;23.50;95.10;;;;;;4949019;29;20200;-90
2023/09/13 06:10:37;;;;;;;5.55;4.38;;;23.50;94.40;;;;;;4956443;28;20210;-90
2023/09/13 06:13:09;;;;;;;9.95;5.80;;;23.70;93.80;;;;;;4964260;28;20188;-90
2023/09/13 06:15:40;;;;;;;4.45;3.42;;;23.90;93.40;;;;;;4955363;29;20243;-90
2023/09/13 06:18:14;;;;;;;5.28;4.55;;;24.00;90.60;;;;;;4953176;28;20226;-91
2023/09/13 06:20:45;;;;;;;8.40;4.30;;;24.10;87.40;;;;;;4951621;29;20223;-88
2023/09/13 06:23:36;;;;;;;6.18;4.65;;;24.20;87.10;;;;;;4951051;28;20204;-88
2023/09/13 06:26:07;;;;;;;8.43;4.05;;;24.10;87.40;;;;;;4935500;29;20200;-89
2023/09/13 06:28:39;;;;;;;5.70;4.15;;;24.30;90.10;;;;;;4938746;29;20200;-89
2023/09/13 06:31:11;;;;;;;7.88;4.40;;;24.30;90.30;;;;;;4932611;29;20204;-88
2023/09/13 06:33:43;;;;;;;8.55;4.30;;;24.10;91.40;;;;;;4942334;29;20288;-87
2023/09/13 06:36:15;;;;;;;6.72;4.70;;;24.00;92.20;;;;;;4946088;29;20228;-85
2023/09/13 06:38:48;;;;;;;8.10;4.60;;;24.00;92.50;;;;;;4951090;29;20208;-88
2023/09/13 06:41:19;;;;;;;6.32;4.40;;;24.00;92.60;;;;;;4946445;28;20192;-88
2023/09/13 06:43:49;;;;;;;6.50;4.30;;;23.60;93.20;;;;;;4953075;29;20211;-88
2023/09/13 06:46:20;;;;;;;5.35;4.18;;;23.60;93.30;;;;;;4943722;29;20199;-87
2023/09/13 06:48:53;;;;;;;9.65;5.13;;;23.50;93.50;;;;;;4950800;29;20576;-87
2023/09/13 06:51:24;;;;;;;6.57;4.68;;;23.70;93.60;;;;;;4953141;29;20655;-87
2023/09/13 06:53:54;;;;;;;5.25;4.32;;;23.70;93.00;;;;;;4945982;29;20212;-86
2023/09/13 06:56:25;;;;;;;8.20;4.20;;;23.50;93.30;;;;;;4951218;28;20224;-86
2023/09/13 06:58:59;;;;;;;5.43;4.05;;;23.40;93.30;;;;;;4958641;28;20187;-85
2023/09/13 07:01:32;;;;;;;5.70;4.25;;;23.00;94.00;;;;;;4962120;28;20196;-85
2023/09/13 07:04:05;;;;;;;6.88;4.20;;;22.90;93.70;;;;;;4958743;28;20686;-86
2023/09/13 07:06:35;;;;;;;7.90;4.00;;;22.50;94.20;;;;;;4951906;29;20615;-85
2023/09/13 07:09:06;;;;;;;4.65;4.10;;;22.20;95.10;;;;;;4970529;29;20196;-88
2023/09/13 07:11:38;;;;;;;6.03;4.38;;;21.90;95.70;;;;;;4956167;29;20184;-88
2023/09/13 07:14:09;;;;;;;5.35;4.30;;;21.70;96.40;;;;;;4949603;29;20288;-87
2023/09/13 07:16:40;;;;;;;6.05;4.30;;;21.70;97.30;;;;;;4947539;29;20634;-87
2023/09/13 07:19:14;;;;;;;7.15;4.30;;;21.50;97.80;;;;;;4956206;29;20207;-86
2023/09/13 07:21:44;;;;;;;4.82;4.00;;;21.40;98.00;;;;;;4961621;28;20207;-86
2023/09/13 07:24:15;;;;;;;4.95;4.00;;;21.30;98.00;;;;;;4957393;29;20192;-87
2023/09/13 07:26:46;;;;;;;5.35;3.08;;;21.20;97.00;;;;;;4951852;29;20237;-86
2023/09/13 07:29:18;;;;;;;6.10;3.47;;;21.10;97.30;;;;;;4952253;29;20518;-87
2023/09/13 07:31:48;;;;;;;5.15;3.72;;;21.00;97.60;;;;;;4942938;29;20604;-86
2023/09/13 07:34:22;;;;;;;5.45;3.50;;;20.90;98.10;;;;;;4957852;29;20228;-85
2023/09/13 07:36:54;;;;;;;5.43;3.58;;;20.80;98.30;;;;;;4954930;29;20214;-86
2023/09/13 07:39:25;;;;;;;4.45;3.42;;;20.80;98.60;;;;;;4951902;29;20203;-85
2023/09/13 07:41:56;;;;;;;4.63;3.55;;;20.70;98.90;;;;;;4953818;29;22270;-86
2023/09/13 07:44:27;;;;;;;3.92;3.40;;;20.60;99.70;;;;;;4954417;29;20204;-86
2023/09/13 07:46:58;;;;;;;7.50;3.90;;;20.50;99.90;;;;;;4953901;29;20200;-86
2023/09/13 07:49:30;;;;;;;4.55;3.42;;;20.40;99.90;;;;;;4952315;29;20200;-85
2023/09/13 07:52:04;;;;;;;4.57;3.83;;;20.40;99.90;;;;;;4955295;29;20563;-86
2023/09/13 07:54:35;;;;;;;5.55;3.67;;;20.30;99.90;;;;;;4947443;29;20251;-87
2023/09/13 07:57:07;;;;;;;5.53;3.80;;;20.30;99.90;;;;;;4953456;29;20184;-85
2023/09/13 07:59:37;;;;;;;4.80;3.78;;;20.20;99.90;;;;;;4951900;29;20207;-87
2023/09/13 08:02:08;;;;;;;5.75;3.83;;;20.20;99.90;;;;;;4945881;29;20192;-86
2023/09/13 08:04:41;;;;;;;6.82;4.50;;;20.20;99.90;;;;;;4955309;29;20210;-88
2023/09/13 08:07:12;;;;;;;6.03;4.40;;;20.10;99.90;;;;;;4948514;29;20201;-86
2023/09/13 08:09:43;;;;;;;7.80;5.18;;;20.10;99.90;;;;;;4938081;29;20196;-86
2023/09/13 08:12:13;;;;;;;9.07;5.15;;;20.00;99.90;;;;;;4956782;29;20207;-86
2023/09/13 08:14:44;;;;;;;10.52;4.80;;;19.90;99.90;;;;;;4974264;28;20179;-87
2023/09/13 08:17:15;;;;;;;8.18;5.20;;;19.90;99.90;;;;;;4960441;28;20226;-88
2023/09/13 08:19:48;;;;;;;10.18;5.15;;;19.80;99.90;;;;;;4941738;29;20196;-87
2023/09/13 08:22:18;;;;;;;6.82;5.18;;;19.80;99.90;;;;;;4953935;29;20731;-88
2023/09/13 08:24:49;;;;;;;10.68;5.25;;;19.80;99.90;;;;;;4955836;29;20200;-85
2023/09/13 08:27:20;;;;;;;7.88;5.10;;;19.70;99.90;;;;;;4952451;29;20203;-84
2023/09/13 08:29:52;;;;;;;7.18;5.13;;;19.70;99.90;;;;;;4956158;28;20192;-85
2023/09/13 08:32:38;;;;;;;7.25;5.50;;;19.70;99.90;;;;;;4966363;29;20206;-84
2023/09/13 08:35:11;;;;;;;7.45;5.57;;;19.70;99.90;;;;;;4958004;29;20262;-84
2023/09/13 08:37:42;;;;;;;9.25;5.78;;;19.60;99.90;;;;;;4966671;29;20192;-85
2023/09/13 08:40:15;;;;;;;8.27;5.43;;;19.60;99.90;;;;;;4972057;29;20214;-85
2023/09/13 08:42:46;;;;;;;8.40;5.10;;;19.60;99.90;;;;;;4968683;29;20641;-85
2023/09/13 08:45:17;;;;;;;9.23;5.18;;;19.50;99.90;;;;;;4970362;29;20203;-84
2023/09/13 08:47:49;;;;;;;8.55;5.10;;;19.40;99.90;;;;;;4969245;29;20204;-84
2023/09/13 08:50:27;;;;;;;6.45;5.10;;;19.40;99.90;;;;;;4958350;29;20200;-84
2023/09/13 08:53:00;;;;;;;7.30;4.95;;;19.40;99.90;;;;;;4965527;29;20203;-86
2023/09/13 08:55:33;;;;;;;7.32;4.97;;;19.40;99.90;;;;;;4955643;28;20230;-85
2023/09/13 08:58:04;;;;;;;6.90;5.13;;;19.30;99.90;;;;;;4957121;29;20199;-86
2023/09/13 09:00:39;;;;;;;8.65;4.80;;;19.30;99.90;;;;;;4959407;29;20207;-86
2023/09/13 09:03:11;;;;;;;10.40;5.60;;;19.30;99.90;;;;;;4954145;29;20203;-84
2023/09/13 09:05:46;;;;;;;7.57;5.13;;;19.30;99.90;;;;;;4951935;29;20191;-85
2023/09/13 09:08:17;;;;;;;6.40;5.00;;;19.20;99.90;;;;;;4949547;29;20196;-85
2023/09/13 09:10:51;;;;;;;8.40;5.40;;;19.20;99.90;;;;;;4942880;29;20200;-86
2023/09/13 09:13:23;;;;;;;6.57;5.03;;;19.20;99.90;;;;;;4953128;28;20211;-86
2023/09/13 09:15:57;;;;;;;8.75;5.22;;;19.20;99.90;;;;;;4955692;29;20224;-86
2023/09/13 09:18:30;;;;;;;7.60;5.05;;;19.20;99.90;;;;;;4944104;29;20227;-85
2023/09/13 09:21:03;;;;;;;6.72;5.18;;;19.20;99.90;;;;;;4967265;28;20276;-86
2023/09/13 09:23:37;;;;;;;7.55;5.20;;;19.10;99.90;;;;;;4952204;29;20196;-85
2023/09/13 09:26:08;;;;;;;9.02;5.32;;;19.10;99.90;;;;;;4943907;29;20599;-85
2023/09/13 09:28:39;;;;;;;7.70;5.43;;;19.10;99.90;;;;;;4945531;29;20677;-86
2023/09/13 09:31:10;;;;;;;7.53;5.88;;;19.00;99.90;;;;;;4953980;29;20200;-84
2023/09/13 09:33:42;;;;;;;7.72;6.00;;;19.00;99.90;;;;;;4954006;29;20544;-86
2023/09/13 09:36:16;;;;;;;8.82;5.72;;;18.90;99.90;;;;;;4954744;29;20234;-86
2023/09/13 09:38:48;;;;;;;7.05;5.35;;;18.90;99.90;;;;;;4950429;29;20235;-86
2023/09/13 09:41:19;;;;;;;8.73;5.72;;;18.90;99.90;;;;;;4954212;28;20200;-85
2023/09/13 09:43:50;;;;;;;6.55;5.00;;;18.90;99.90;;;;;;4939726;29;20204;-84
2023/09/13 09:46:21;;;;;;;9.05;5.13;;;18.80;99.90;;;;;;4952881;29;20199;-84
2023/09/13 09:48:53;;;;;;;6.18;4.75;;;18.80;99.90;;;;;;4953289;29;20192;-83
2023/09/13 09:51:28;;;;;;;7.15;5.03;;;18.80;99.90;;;;;;4942053;29;20629;-84
2023/09/13 09:53:59;;;;;;;6.80;4.95;;;18.80;99.90;;;;;;4944632;29;20231;-84
2023/09/13 09:56:30;;;;;;;7.38;4.78;;;18.80;99.90;;;;;;4945032;29;20226;-86
2023/09/13 09:59:02;;;;;;;6.07;4.65;;;18.80;99.90;;;;;;4954157;29;20243;-86
2023/09/13 10:01:33;;;;;;;7.72;4.60;;;18.80;99.90;;;;;;4934871;29;20397;-85
2023/09/13 10:04:11;;;;;;;8.02;5.13;;;18.80;99.90;;;;;;4953016;29;20699;-85
2023/09/13 10:07:03;;;;;;;6.85;4.60;;;18.70;99.90;;;;;;4939175;29;20204;-84
2023/09/13 10:09:43;;;;;;;8.50;4.95;;;18.70;99.90;;;;;;4943962;29;20203;-84
2023/09/13 10:12:15;;;;;;;7.13;4.57;;;18.70;99.90;;;;;;4954529;29;20196;-85
2023/09/13 10:14:47;;;;;;;7.28;4.28;;;18.70;99.90;;;;;;4954600;29;20676;-86
2023/09/13 10:17:20;;;;;;;6.55;4.63;;;18.60;99.90;;;;;;4939724;29;20255;-86
2023/09/13 10:19:52;;;;;;;8.30;4.28;;;18.60;99.90;;;;;;4946709;29;20571;-86
2023/09/13 10:22:30;;;;;;;5.03;4.00;;;18.60;99.90;;;;;;4942636;29;20212;-85
2023/09/13 10:25:03;;;;;;;6.90;4.30;;;18.60;99.90;;;;;;4944875;28;20193;-87
2023/09/13 10:27:36;;;;;;;6.10;4.25;;;18.60;99.90;;;;;;4960927;29;20220;-87
2023/09/13 10:30:09;;;;;;;9.27;4.50;;;18.50;99.90;;;;;;4954503;29;20258;-86
2023/09/13 10:32:47;;;;;;;7.07;3.90;;;18.50;99.90;;;;;;4944796;29;20649;-85
2023/09/13 10:35:20;;;;;;;7.00;4.28;;;18.50;99.90;;;;;;4948814;29;20228;-86
2023/09/13 10:38:00;;;;;;;6.40;4.10;;;18.50;99.90;;;;;;4936520;29;20378;-85
2023/09/13 10:40:36;;;;;;;5.25;4.07;;;18.50;99.90;;;;;;4953495;29;20203;-84
2023/09/13 10:43:08;;;;;;;5.38;3.90;;;18.50;99.90;;;;;;4953824;29;20666;-85
2023/09/13 10:45:41;;;;;;;5.10;3.90;;;18.50;99.90;;;;;;4952773;29;20296;-85
2023/09/13 10:48:12;;;;;;;7.35;4.18;;;18.50;99.90;;;;;;4945784;29;20255;-85
2023/09/13 10:50:43;;;;;;;4.85;3.67;;;18.50;99.90;;;;;;4935378;29;20211;-85
2023/09/13 10:53:17;;;;;;;6.53;4.28;;;18.50;99.90;;;;;;4951296;28;20200;-85
2023/09/13 10:55:48;;;;;;;6.38;4.03;;;18.50;99.90;;;;;;4944139;29;20227;-85
2023/09/13 10:58:20;;;;;;;7.38;4.25;;;18.40;99.90;;;;;;4953663;29;20211;-86
2023/09/13 11:00:53;;;;;;;4.82;3.70;;;18.40;99.90;;;;;;4952983;29;20195;-85
2023/09/13 11:03:24;;;;;;;6.10;4.05;;;18.40;99.90;;;;;;4953801;29;20251;-83
2023/09/13 11:05:58;;;;;;;8.02;4.20;;;18.40;99.90;;;;;;4953357;29;20215;-84
2023/09/13 11:08:32;;;;;;;5.30;3.80;;;18.30;99.90;;;;;;4952513;29;20237;-85
2023/09/13 11:11:14;;;;;;;5.78;4.22;;;18.30;99.90;;;;;;4952060;29;20218;-85
2023/09/13 11:13:46;;;;;;;7.28;4.35;;;18.30;99.90;;;;;;4953534;29;20251;-85
2023/09/13 11:16:25;;;;;;;6.97;4.70;;;18.30;99.90;;;;;;4953078;29;20216;-85
2023/09/13 11:18:57;;;;;;;7.57;4.60;;;18.30;99.90;;;;;;4952766;29;20216;-83
2023/09/13 11:21:30;;;;;;;6.70;4.72;;;18.30;99.90;;;;;;4937374;29;20192;-84
2023/09/13 11:24:03;;;;;;;7.43;4.70;;;18.20;99.90;;;;;;4952459;29;20312;-85
2023/09/13 11:26:50;;;;;;;7.93;4.53;;;18.20;99.90;;;;;;4950163;29;20207;-85
2023/09/13 11:29:31;;;;;;;8.15;5.20;;;18.20;99.90;;;;;;4939046;29;20192;-86
2023/09/13 11:32:03;;;;;;;8.07;5.07;;;18.10;99.90;;;;;;4960102;28;20188;-82
2023/09/13 11:34:37;;;;;;;6.55;5.20;;;18.10;99.90;;;;;;4967431;29;20236;-86
2023/09/13 11:37:09;;;;;;;8.43;5.15;;;18.10;99.90;;;;;;4941977;29;20754;-85
2023/09/13 11:39:42;;;;;;;7.00;4.75;;;18.10;99.90;;;;;;4933837;29;20256;-85
2023/09/13 11:42:15;;;;;;;8.30;5.63;;;18.00;99.90;;;;;;4940522;29;20209;-84
2023/09/13 11:44:46;;;;;;;8.70;5.95;;;18.00;99.90;;;;;;4948925;29;20200;-85
2023/09/13 11:47:21;;;;;;;9.00;5.47;;;17.90;99.90;;;;;;4945340;29;20192;-85
2023/09/13 11:49:55;;;;;;;10.18;5.70;;;17.90;99.90;;;;;;4933378;29;20226;-84
2023/09/13 11:52:26;;;;;;;10.38;5.75;;;17.90;99.90;;;;;;4944387;29;20535;-84
2023/09/13 11:55:01;;;;;;;8.77;5.93;;;18.00;99.90;;;;;;4942470;29;20200;-83
2023/09/13 11:57:53;;;;;;;7.13;5.00;;;18.00;99.90;;;;;;4947520;29;20551;-84
2023/09/13 12:00:25;;;;;;;8.45;5.13;;;17.90;99.90;;;;;;4955263;29;20208;-85
2023/09/13 12:02:59;;;;;;;6.43;5.10;;;17.90;99.90;;;;;;4960853;29;20660;-86
2023/09/13 12:05:31;;;;;;;8.23;5.22;;;17.90;99.90;;;;;;4958498;29;20210;-87
2023/09/13 12:08:02;;;;;;;9.27;5.57;;;17.90;99.90;;;;;;4949139;29;20196;-86
2023/09/13 12:10:37;;;;;;;7.38;4.70;;;17.80;99.90;;;;;;4961162;29;20223;-86
2023/09/13 12:13:08;;;;;;;8.30;5.25;;;17.80;99.90;;;;;;4941381;29;20200;-86
2023/09/13 12:15:58;;;;;;;7.80;5.18;;;17.80;99.90;;;;;;4945704;29;20694;-84
2023/09/13 12:18:31;;;;;;;7.68;5.68;;;17.80;99.90;;;;;;4954495;28;20707;-84
2023/09/13 12:21:02;;;;;;;8.07;6.00;;;17.70;99.90;;;;;;4954375;29;20196;-86
2023/09/13 12:23:37;;;;;;;7.32;5.50;;;17.70;99.90;;;;;;4942553;29;20288;-86
2023/09/13 12:26:13;;;;;;;8.68;5.88;;;17.60;99.90;;;;;;4939026;29;20204;-86
2023/09/13 12:28:45;;;;;;;8.95;5.88;;;17.60;99.90;;;;;;4953854;29;20200;-85
2023/09/13 12:31:18;;;;;;;8.45;6.13;;;17.60;99.90;;;;;;4951837;29;20188;-85
2023/09/13 12:33:51;;;;;;;9.93;6.40;;;17.50;99.90;;;;;;4956219;29;20230;-85
2023/09/13 12:36:24;;;;;;;7.60;5.63;;;17.50;99.90;;;;;;4956872;29;20255;-86
2023/09/13 12:38:59;;;;;;;8.43;5.65;;;17.50;99.90;;;;;;4963917;29;20193;-86
2023/09/13 12:41:35;;;;;;;7.70;6.22;;;17.50;99.90;;;;;;4951206;29;20215;-87
2023/09/13 12:44:06;;;;;;;8.50;5.63;;;17.40;99.90;;;;;;4955558;29;20191;-85
2023/09/13 12:46:37;;;;;;;8.73;6.00;;;17.40;99.90;;;;;;4954749;29;20203;-85
2023/09/13 12:49:09;;;;;;;9.18;6.25;;;17.40;99.90;;;;;;4936708;29;20206;-85
2023/09/13 12:51:38;;;;;;;7.43;5.85;;;17.30;99.90;;;;;;4939666;29;20211;-86
2023/09/13 12:54:12;;;;;;;7.45;5.53;;;17.30;99.90;;;;;;4939222;29;20252;-85
2023/09/13 12:56:46;;;;;;;7.75;5.72;;;17.30;99.90;;;;;;4947893;28;20247;-86
2023/09/13 12:59:16;;;;;;;7.05;5.97;;;17.30;99.90;;;;;;4958440;29;20200;-86
2023/09/13 13:01:47;;;;;;;8.20;5.90;;;17.20;99.90;;;;;;4960960;28;20202;-86
2023/09/13 13:04:19;;;;;;;8.27;6.22;;;17.20;99.90;;;;;;4949434;29;20651;-86
2023/09/13 13:07:02;;;;;;;7.28;6.00;;;17.20;99.90;;;;;;4955287;29;20211;-86
2023/09/13 13:09:33;;;;;;;7.90;6.35;;;17.20;99.90;;;;;;4953641;29;20227;-87